createdAt,value
2019-01-06T00:02:00.491Z,4.96
2019-01-06T00:07:06.545Z,5.55
2019-01-06T00:12:12.647Z,7.53
2019-01-06T00:17:18.662Z,5.51
2019-01-06T00:22:24.732Z,5.72
2019-01-06T00:27:30.791Z,6.08
2019-01-06T00:32:36.800Z,6.55
2019-01-06T00:37:42.973Z,9.34
2019-01-06T00:42:49.092Z,6.58
2019-01-06T00:47:55.132Z,6.68
2019-01-06T00:53:01.168Z,9.70
2019-01-06T00:58:07.201Z,7.05
2019-01-06T01:03:13.275Z,6.99
2019-01-06T01:08:19.373Z,7.29
2019-01-06T01:13:25.382Z,7.09
2019-01-06T01:18:31.500Z,7.05
2019-01-06T01:23:37.634Z,7.73
2019-01-06T01:28:43.689Z,7.96
2019-01-06T01:33:49.761Z,9.48
2019-01-06T01:38:55.893Z,8.94
2019-01-06T01:44:01.924Z,12.64
2019-01-06T01:49:07.968Z,9.58
2019-01-06T01:54:14.058Z,9.72
2019-01-06T01:59:20.101Z,9.51
2019-01-06T02:04:26.168Z,10.46
2019-01-06T02:09:32.245Z,8.96
2019-01-06T02:14:38.272Z,8.88
2019-01-06T02:19:44.340Z,8.85
2019-01-06T02:24:50.378Z,9.38
2019-01-06T02:29:56.439Z,11.78
2019-01-06T02:35:02.478Z,8.53
2019-01-06T02:40:08.532Z,8.67
2019-01-06T02:45:14.551Z,7.33
2019-01-06T02:50:20.564Z,7.34
2019-01-06T02:55:26.596Z,10.64
2019-01-06T03:00:32.639Z,7.04
2019-01-06T03:05:38.682Z,6.82
2019-01-06T03:10:44.739Z,10.98
2019-01-06T03:15:50.798Z,11.49
2019-01-06T03:20:56.866Z,7.47
2019-01-06T03:26:02.932Z,8.93
2019-01-06T03:31:08.961Z,8.59
2019-01-06T03:36:14.974Z,10.49
2019-01-06T03:41:21.003Z,8.20
2019-01-06T03:46:27.057Z,7.55
2019-01-06T03:51:33.085Z,12.68
2019-01-06T03:56:39.107Z,8.64
2019-01-06T04:01:45.201Z,12.98
2019-01-06T04:06:51.224Z,9.18
2019-01-06T04:11:57.291Z,8.26
2019-01-06T04:17:03.375Z,10.62
2019-01-06T04:22:09.344Z,7.25
2019-01-06T04:27:15.417Z,7.69
2019-01-06T04:32:21.471Z,8.01
2019-01-06T04:37:27.490Z,7.95
2019-01-06T04:42:33.627Z,8.19
2019-01-06T04:47:39.626Z,8.63
2019-01-06T04:52:45.826Z,9.29
2019-01-06T04:57:51.854Z,13.30
2019-01-06T05:02:57.913Z,9.22
2019-01-06T05:08:03.909Z,8.89
2019-01-06T05:13:09.924Z,7.90
2019-01-06T05:18:15.921Z,11.11
2019-01-06T05:23:21.955Z,7.78
2019-01-06T05:28:27.972Z,11.90
2019-01-06T05:33:34.012Z,8.28
2019-01-06T05:38:40.039Z,13.36
2019-01-06T05:43:46.079Z,9.10
2019-01-06T05:48:52.169Z,8.94
2019-01-06T05:53:58.198Z,9.16
2019-01-06T05:59:04.299Z,13.65
2019-01-06T06:04:10.342Z,9.60
2019-01-06T06:09:16.451Z,15.30
2019-01-06T06:14:22.509Z,10.91
2019-01-06T06:19:28.536Z,10.83
2019-01-06T06:24:34.592Z,11.77
2019-01-06T06:29:40.613Z,11.51
2019-01-06T06:34:46.609Z,17.62
2019-01-06T06:39:52.626Z,10.78
2019-01-06T06:44:58.795Z,11.55
2019-01-06T06:50:04.943Z,10.95
2019-01-06T06:55:10.959Z,10.30
2019-01-06T07:00:17.032Z,10.32
2019-01-06T07:05:23.096Z,10.38
2019-01-06T07:10:29.083Z,9.83
2019-01-06T07:15:35.106Z,9.29
2019-01-06T07:20:41.150Z,9.64
2019-01-06T07:25:47.177Z,14.22
2019-01-06T07:30:53.444Z,8.90
2019-01-06T07:35:59.558Z,8.24
2019-01-06T07:41:05.831Z,7.20
2019-01-06T07:46:11.870Z,7.70
2019-01-06T07:51:17.950Z,7.99
2019-01-06T07:56:24.103Z,8.69
2019-01-06T08:06:30.169Z,11.90
2019-01-06T08:11:36.189Z,12.17
2019-01-06T08:16:42.195Z,8.29
2019-01-06T08:21:48.203Z,7.78
2019-01-06T08:26:54.525Z,8.43
2019-01-06T08:32:00.536Z,9.51
2019-01-06T08:37:06.588Z,15.19
2019-01-06T08:42:12.775Z,16.17
2019-01-06T08:47:18.808Z,18.69
2019-01-06T08:52:24.815Z,14.66
2019-01-06T08:57:30.852Z,13.21
2019-01-06T09:02:36.863Z,14.16
2019-01-06T09:07:42.906Z,23.86
2019-01-06T09:12:48.925Z,19.99
2019-01-06T09:17:54.938Z,24.14
2019-01-06T09:23:00.954Z,17.78
2019-01-06T09:28:06.950Z,16.90
2019-01-06T09:33:13.035Z,26.79
2019-01-06T09:38:19.063Z,17.28
2019-01-06T09:43:25.111Z,16.89
2019-01-06T09:48:31.136Z,24.70
2019-01-06T09:53:37.152Z,25.43
2019-01-06T09:58:43.226Z,17.50
2019-01-06T10:03:49.299Z,17.57
2019-01-06T10:08:55.325Z,17.01
2019-01-06T10:14:02.674Z,25.57
2019-01-06T10:19:06.906Z,16.46
2019-01-06T10:24:13.101Z,16.16
2019-01-06T10:29:19.210Z,14.95
2019-01-06T10:34:25.203Z,19.66
2019-01-06T10:39:31.804Z,12.75
2019-01-06T10:44:37.964Z,13.48
2019-01-06T10:49:43.959Z,14.18
2019-01-06T10:54:49.985Z,12.42
2019-01-06T10:59:56.071Z,20.63
2019-01-06T11:05:02.182Z,13.99
2019-01-06T11:10:08.273Z,12.91
2019-01-06T11:15:14.295Z,12.39
2019-01-06T11:20:21.837Z,18.27
2019-01-06T11:25:27.962Z,12.04
2019-01-06T11:30:34.053Z,12.98
2019-01-06T11:35:40.089Z,12.52
2019-01-06T11:40:46.125Z,15.21
2019-01-06T11:45:52.191Z,13.68
2019-01-06T11:50:58.207Z,15.45
2019-01-06T11:56:04.264Z,13.09
2019-01-06T12:01:10.347Z,13.93
2019-01-06T12:06:16.601Z,14.21
2019-01-06T12:11:22.662Z,15.53
2019-01-06T12:16:28.698Z,15.52
2019-01-06T12:21:34.710Z,14.65
2019-01-06T12:26:40.783Z,15.75
2019-01-06T12:31:46.872Z,22.77
2019-01-06T12:36:52.922Z,14.95
2019-01-06T12:41:58.989Z,21.19
2019-01-06T12:47:05.022Z,21.86
2019-01-06T12:52:11.269Z,14.57
2019-01-06T12:57:17.442Z,14.09
2019-01-06T13:02:23.479Z,13.96
2019-01-06T13:07:29.513Z,14.11
2019-01-06T13:12:35.528Z,13.57
2019-01-06T13:17:41.720Z,19.92
2019-01-06T13:22:48.422Z,12.85
2019-01-06T13:27:54.538Z,14.10
2019-01-06T13:33:00.546Z,13.91
2019-01-06T13:38:06.550Z,18.85
2019-01-06T13:43:13.372Z,12.51
2019-01-06T13:48:19.531Z,18.63
2019-01-06T13:53:25.581Z,19.94
2019-01-06T13:58:31.625Z,14.71
2019-01-06T14:03:37.664Z,16.04
2019-01-06T14:08:43.803Z,16.69
2019-01-06T14:13:50.154Z,16.30
2019-01-06T14:18:56.175Z,24.17
2019-01-06T14:24:02.232Z,15.83
2019-01-06T14:29:08.287Z,16.43
2019-01-06T14:34:14.454Z,15.95
2019-01-06T14:39:20.552Z,25.66
2019-01-06T14:44:26.616Z,16.68
2019-01-06T14:49:32.632Z,16.88
2019-01-06T14:54:38.645Z,18.00
2019-01-06T14:59:44.687Z,23.80
2019-01-06T15:05:44.498Z,26.17
2019-01-06T15:10:50.581Z,18.43
2019-01-06T15:15:56.795Z,16.90
2019-01-06T15:21:02.852Z,25.93
2019-01-06T15:26:08.994Z,23.26
2019-01-06T15:31:15.273Z,16.62
2019-01-06T15:36:21.591Z,17.17
2019-01-06T15:41:27.614Z,16.86
2019-01-06T15:46:33.914Z,24.25
2019-01-06T15:51:40.028Z,15.39
2019-01-06T15:56:46.098Z,14.93
2019-01-06T16:01:52.139Z,13.74
2019-01-06T16:06:58.242Z,14.16
2019-01-06T16:12:04.296Z,19.30
2019-01-06T16:17:10.322Z,13.46
2019-01-06T16:22:16.350Z,14.45
2019-01-06T16:27:22.399Z,14.91
2019-01-06T16:32:31.510Z,22.29
2019-01-06T16:37:37.572Z,15.38
2019-01-06T16:42:43.637Z,15.60
2019-01-06T16:47:49.721Z,14.83
2019-01-06T16:52:55.749Z,14.63
2019-01-06T16:58:04.826Z,21.21
2019-01-06T17:03:10.889Z,14.82
2019-01-06T17:08:16.957Z,14.55
2019-01-06T17:13:23.046Z,20.13
2019-01-06T17:18:29.182Z,13.29
2019-01-06T17:23:35.195Z,18.92
2019-01-06T17:28:41.229Z,12.55
2019-01-06T17:33:47.324Z,19.70
2019-01-06T17:38:53.393Z,20.43
2019-01-06T17:43:59.496Z,14.84
2019-01-06T17:49:05.633Z,15.97
2019-01-06T17:54:12.000Z,16.77
2019-01-06T17:59:18.104Z,18.59
2019-01-06T18:04:24.297Z,29.67
2019-01-06T18:09:30.339Z,19.09
2019-01-06T18:14:36.402Z,17.40
2019-01-06T18:19:42.470Z,18.34
2019-01-06T18:24:48.537Z,18.96
2019-01-06T18:29:54.667Z,17.82
2019-01-06T18:35:00.735Z,26.48
2019-01-06T18:40:06.848Z,25.78
2019-01-06T18:45:12.931Z,17.72
2019-01-06T18:50:18.982Z,17.29
2019-01-06T18:55:25.670Z,17.25
2019-01-06T19:00:30.796Z,18.18
2019-01-06T19:05:36.855Z,18.46
2019-01-06T19:10:42.952Z,21.41
2019-01-06T19:15:49.039Z,28.30
2019-01-06T19:20:55.239Z,30.42
2019-01-06T19:26:01.389Z,19.93
2019-01-06T19:31:07.428Z,30.39
2019-01-06T19:36:13.490Z,20.08
2019-01-06T19:41:19.558Z,20.39
2019-01-06T19:46:25.591Z,20.46
2019-01-06T19:51:31.709Z,30.34
2019-01-06T19:56:37.769Z,19.93
2019-01-06T20:01:43.835Z,19.23
2019-01-06T20:06:49.937Z,20.19
2019-01-06T20:11:55.978Z,20.41
2019-01-06T20:17:02.059Z,20.95
2019-01-06T20:22:08.068Z,30.56
2019-01-06T20:27:14.160Z,22.27
2019-01-06T20:32:20.218Z,21.49
2019-01-06T20:37:26.333Z,20.43
2019-01-06T20:42:32.404Z,19.80
2019-01-06T20:47:38.383Z,19.61
2019-01-06T20:52:45.086Z,19.90
2019-01-06T20:57:51.099Z,28.53
2019-01-06T21:02:57.249Z,18.84
2019-01-06T21:08:03.272Z,29.09
2019-01-06T21:13:09.305Z,19.29
2019-01-06T21:18:15.341Z,18.18
2019-01-06T21:23:21.384Z,18.72
2019-01-06T21:28:27.419Z,17.89
2019-01-06T21:33:33.559Z,30.36
2019-01-06T21:38:40.110Z,21.53
2019-01-06T21:43:46.168Z,21.15
2019-01-06T21:48:52.207Z,18.27
2019-01-06T21:54:03.839Z,18.76
2019-01-06T21:59:03.974Z,18.74
2019-01-06T22:04:10.475Z,18.61
2019-01-06T22:09:16.506Z,20.14
2019-01-06T22:14:22.923Z,19.91
2019-01-06T22:19:29.016Z,20.08
2019-01-06T22:24:35.478Z,20.98
2019-01-06T22:29:41.509Z,19.91
2019-01-06T22:34:47.699Z,20.81
2019-01-06T22:39:53.796Z,32.76
2019-01-06T22:44:59.804Z,21.37
2019-01-06T22:50:05.831Z,21.63
2019-01-06T22:55:11.821Z,33.82
2019-01-06T23:00:17.855Z,23.71
2019-01-06T23:05:23.861Z,24.19
2019-01-06T23:10:29.872Z,23.68
2019-01-06T23:15:35.822Z,23.20
2019-01-06T23:20:41.838Z,23.37
2019-01-06T23:25:47.942Z,23.19
2019-01-06T23:30:53.989Z,34.61
2019-01-06T23:35:59.958Z,23.22
2019-01-06T23:41:05.962Z,23.33
2019-01-06T23:46:11.953Z,23.73
2019-01-06T23:51:17.960Z,23.54
2019-01-06T23:56:23.960Z,22.63
